Time;durP1;ratioP1;P1;durP2;ratioP2;P2;SDS_P1;SDS_P2;PMS_P1;PMS_P2;Temp;Humidity;BMP_temperature;BMP_pressure;BME280_temperature;BME280_humidity;BME280_pressure;Samples;Min_cycle;Max_cycle;Signal;HPM_P1;HPM_P2
2022/09/30 00:00:56;;;;;;;5.40;4.50;;;8.40;99.90;;;;;;5108137;28;20445;-83
2022/09/30 00:03:23;;;;;;;5.17;4.40;;;8.50;99.90;;;;;;5108285;28;20905;-82
2022/09/30 00:05:56;;;;;;;5.47;4.70;;;8.40;99.90;;;;;;5108177;28;20449;-83
2022/09/30 00:08:23;;;;;;;5.43;3.80;;;8.30;99.90;;;;;;5091435;28;20959;-83
2022/09/30 00:11:00;;;;;;;5.40;4.43;;;8.30;99.90;;;;;;5107485;28;20550;-81
2022/09/30 00:13:27;;;;;;;6.70;4.80;;;8.30;99.90;;;;;;5105715;28;20498;-82
2022/09/30 00:15:54;;;;;;;6.63;4.53;;;8.30;99.90;;;;;;5106652;28;20453;-82
2022/09/30 00:18:21;;;;;;;6.53;4.77;;;8.10;99.90;;;;;;5106823;28;20534;-82
2022/09/30 00:20:48;;;;;;;8.23;5.30;;;8.00;99.90;;;;;;5107476;28;20459;-83
2022/09/30 00:23:15;;;;;;;5.10;4.57;;;8.10;99.90;;;;;;5106373;28;20538;-81
2022/09/30 00:25:41;;;;;;;6.80;4.73;;;8.10;99.90;;;;;;5107293;28;20901;-81
2022/09/30 00:28:10;;;;;;;8.33;4.83;;;8.10;99.90;;;;;;5106178;28;20458;-82
2022/09/30 00:30:36;;;;;;;6.00;4.40;;;8.10;99.90;;;;;;5106099;28;20525;-83
2022/09/30 00:33:03;;;;;;;5.00;4.10;;;8.10;99.90;;;;;;5105622;28;21105;-81
2022/09/30 00:35:30;;;;;;;4.67;4.17;;;8.00;99.90;;;;;;5105585;28;20945;-83
2022/09/30 00:37:58;;;;;;;8.90;4.80;;;8.00;99.90;;;;;;5106656;28;20509;-81
2022/09/30 00:40:26;;;;;;;4.70;3.80;;;8.00;99.90;;;;;;5105969;28;20467;-80
2022/09/30 00:42:53;;;;;;;4.90;4.23;;;8.00;99.90;;;;;;5106185;28;20542;-82
2022/09/30 00:45:21;;;;;;;5.37;4.20;;;8.00;99.90;;;;;;5095790;28;20569;-83
2022/09/30 00:47:51;;;;;;;6.70;4.60;;;8.00;99.90;;;;;;5104293;28;20529;-82
2022/09/30 00:50:38;;;;;;;5.37;4.40;;;7.90;99.90;;;;;;5104974;28;20451;-82
2022/09/30 00:53:09;;;;;;;5.10;3.70;;;8.00;99.90;;;;;;5104344;28;20462;-82
2022/09/30 00:55:47;;;;;;;6.00;4.10;;;8.00;99.90;;;;;;5104754;28;20446;-81
2022/09/30 00:58:21;;;;;;;5.87;4.50;;;7.90;99.90;;;;;;5104989;28;20456;-80
2022/09/30 01:00:50;;;;;;;5.47;3.60;;;7.80;99.90;;;;;;5103762;28;20538;-81
2022/09/30 01:03:19;;;;;;;6.30;3.90;;;7.70;99.90;;;;;;5104585;28;20504;-82
2022/09/30 01:05:46;;;;;;;7.23;5.10;;;7.70;99.90;;;;;;5104329;28;20447;-83
2022/09/30 01:08:13;;;;;;;5.87;3.53;;;7.80;99.90;;;;;;5104317;28;20434;-81
2022/09/30 01:10:39;;;;;;;5.90;4.30;;;7.90;99.90;;;;;;5104094;28;20537;-81
2022/09/30 01:13:06;;;;;;;6.17;4.40;;;7.70;99.90;;;;;;5104615;28;20556;-81
2022/09/30 01:15:53;;;;;;;6.80;4.60;;;7.80;99.90;;;;;;5104989;28;20514;-82
2022/09/30 01:18:30;;;;;;;5.57;4.40;;;7.80;99.90;;;;;;5105803;28;20454;-82
2022/09/30 01:21:36;;;;;;;5.30;3.43;;;7.70;99.90;;;;;;5105865;28;20461;-82
2022/09/30 01:24:21;;;;;;;6.13;4.23;;;7.80;99.90;;;;;;5092836;28;20577;-81
2022/09/30 01:27:10;;;;;;;6.27;4.27;;;7.80;99.90;;;;;;5108646;28;20522;-82
2022/09/30 01:30:11;;;;;;;4.70;3.67;;;7.80;99.90;;;;;;5104175;28;20465;-81
2022/09/30 01:33:00;;;;;;;5.73;4.70;;;7.90;99.90;;;;;;5101324;28;20535;-83
2022/09/30 01:35:37;;;;;;;6.40;4.40;;;7.80;99.90;;;;;;5092695;28;20486;-82
2022/09/30 01:38:13;;;;;;;4.97;4.00;;;7.70;99.90;;;;;;5108360;28;20452;-83
2022/09/30 01:40:45;;;;;;;8.60;4.60;;;7.70;99.90;;;;;;5117807;28;20422;-83
2022/09/30 01:43:18;;;;;;;6.33;3.63;;;7.70;99.90;;;;;;5118009;28;20474;-82
2022/09/30 01:45:55;;;;;;;4.43;3.67;;;7.70;99.90;;;;;;5114510;28;20505;-81
2022/09/30 01:48:28;;;;;;;5.77;4.33;;;7.80;99.90;;;;;;5100987;28;20487;-83
2022/09/30 01:50:59;;;;;;;5.87;4.83;;;7.80;99.90;;;;;;5101171;28;20481;-83
2022/09/30 01:53:35;;;;;;;5.60;3.60;;;7.70;99.90;;;;;;5101348;28;20470;-82
2022/09/30 01:56:10;;;;;;;5.30;4.20;;;7.70;99.90;;;;;;5101883;28;20529;-81
2022/09/30 01:58:41;;;;;;;9.77;4.80;;;7.70;99.90;;;;;;5100772;28;20454;-82
2022/09/30 02:01:15;;;;;;;4.50;3.70;;;7.70;99.90;;;;;;5101294;28;20881;-81
2022/09/30 02:03:48;;;;;;;4.87;3.67;;;7.60;99.90;;;;;;5100340;28;20493;-82
2022/09/30 02:06:20;;;;;;;9.27;4.00;;;7.70;99.90;;;;;;5100428;28;20457;-81
2022/09/30 02:08:54;;;;;;;5.30;3.80;;;7.70;99.90;;;;;;5100622;28;20457;-81
2022/09/30 02:11:24;;;;;;;4.60;3.87;;;7.60;99.90;;;;;;5100765;28;20449;-81
2022/09/30 02:13:56;;;;;;;6.23;4.07;;;7.60;99.90;;;;;;5101072;28;20509;-80
2022/09/30 02:16:26;;;;;;;8.50;4.10;;;7.60;99.90;;;;;;5099714;28;20457;-81
2022/09/30 02:18:58;;;;;;;7.50;5.00;;;7.50;99.90;;;;;;5100296;28;20454;-81
2022/09/30 02:21:32;;;;;;;5.10;3.60;;;7.50;99.90;;;;;;5100996;28;20456;-81
2022/09/30 02:24:04;;;;;;;5.30;4.20;;;7.50;99.90;;;;;;5100654;28;20533;-80
2022/09/30 02:26:36;;;;;;;6.03;4.33;;;7.50;99.90;;;;;;5100806;28;20457;-81
2022/09/30 02:29:07;;;;;;;4.93;3.87;;;7.50;99.90;;;;;;5099886;28;20454;-80
2022/09/30 02:31:39;;;;;;;6.20;4.07;;;7.50;99.90;;;;;;5100014;28;20447;-81
2022/09/30 02:34:12;;;;;;;5.60;3.77;;;7.50;99.90;;;;;;5100859;28;20961;-80
2022/09/30 02:36:41;;;;;;;5.80;4.50;;;7.40;99.90;;;;;;5100583;28;20472;-80
2022/09/30 02:39:14;;;;;;;8.13;4.00;;;7.50;99.90;;;;;;5099430;28;20463;-81
2022/09/30 02:41:46;;;;;;;5.17;4.10;;;7.40;99.90;;;;;;5099745;28;20458;-81
2022/09/30 02:44:13;;;;;;;6.10;4.37;;;7.40;99.90;;;;;;5099460;28;20870;-81
2022/09/30 02:46:46;;;;;;;7.20;3.80;;;7.50;99.90;;;;;;5098866;28;21001;-81
2022/09/30 02:49:21;;;;;;;5.17;4.33;;;7.50;99.90;;;;;;5098037;28;20449;-81
2022/09/30 02:52:01;;;;;;;6.40;4.30;;;7.40;99.90;;;;;;5099133;28;20469;-82
2022/09/30 02:54:35;;;;;;;5.50;4.60;;;7.50;99.90;;;;;;5088174;28;20448;-80
2022/09/30 02:57:11;;;;;;;6.50;4.60;;;7.50;99.90;;;;;;5099416;28;20456;-81
2022/09/30 02:59:39;;;;;;;4.90;4.30;;;7.40;99.90;;;;;;5098461;28;20445;-81
2022/09/30 03:02:05;;;;;;;5.17;4.10;;;7.40;99.90;;;;;;5098731;28;20550;-81
2022/09/30 03:04:36;;;;;;;6.17;4.10;;;7.50;99.90;;;;;;5098504;28;20481;-81
2022/09/30 03:07:03;;;;;;;6.67;4.73;;;7.40;99.90;;;;;;5097618;28;20454;-82
2022/09/30 03:09:29;;;;;;;9.97;4.93;;;7.40;99.90;;;;;;5099568;28;21136;-82
2022/09/30 03:12:10;;;;;;;4.93;4.23;;;7.40;99.90;;;;;;5098838;28;20585;-81
2022/09/30 03:14:58;;;;;;;6.03;4.10;;;7.30;99.90;;;;;;5110362;28;20422;-81
2022/09/30 03:17:51;;;;;;;5.77;5.20;;;7.30;99.90;;;;;;5114929;28;20592;-82
2022/09/30 03:20:45;;;;;;;5.27;4.30;;;7.30;99.90;;;;;;5116160;28;20513;-82
2022/09/30 03:23:43;;;;;;;7.27;4.40;;;7.40;99.90;;;;;;5114874;28;20473;-82
2022/09/30 03:26:20;;;;;;;6.33;4.47;;;7.30;99.90;;;;;;5093330;28;20565;-83
2022/09/30 03:28:58;;;;;;;5.83;4.90;;;7.30;99.90;;;;;;5111883;28;20453;-82
2022/09/30 03:31:30;;;;;;;7.17;5.07;;;7.30;99.90;;;;;;5112294;28;20514;-81
2022/09/30 03:34:05;;;;;;;5.30;4.00;;;7.30;99.90;;;;;;5092658;28;20438;-82
2022/09/30 03:36:39;;;;;;;8.83;4.67;;;7.30;99.90;;;;;;5111074;28;20454;-82
2022/09/30 03:39:15;;;;;;;6.03;4.20;;;7.40;99.90;;;;;;5110435;28;20475;-81
2022/09/30 03:41:46;;;;;;;6.03;3.87;;;7.40;99.90;;;;;;5106273;28;20445;-81
2022/09/30 03:44:21;;;;;;;6.47;4.73;;;7.40;99.90;;;;;;5109678;28;20448;-81
2022/09/30 03:46:51;;;;;;;6.77;5.27;;;7.30;99.90;;;;;;5092430;28;20461;-81
2022/09/30 03:49:23;;;;;;;6.60;4.53;;;7.30;99.90;;;;;;5108253;28;20456;-81
2022/09/30 03:51:51;;;;;;;7.47;5.03;;;7.30;99.90;;;;;;5108258;28;20501;-82
2022/09/30 03:54:18;;;;;;;7.10;5.10;;;7.30;99.90;;;;;;5109413;28;20458;-83
2022/09/30 03:56:45;;;;;;;7.67;4.93;;;7.30;99.90;;;;;;5109011;28;20544;-82
2022/09/30 03:59:16;;;;;;;5.00;4.27;;;7.20;99.90;;;;;;5110048;28;20529;-81
2022/09/30 04:01:43;;;;;;;6.60;4.50;;;7.30;99.90;;;;;;5109109;28;20460;-82
2022/09/30 04:04:11;;;;;;;7.97;4.47;;;7.30;99.90;;;;;;5107818;28;20524;-82
2022/09/30 04:06:38;;;;;;;5.10;4.40;;;7.20;99.90;;;;;;5109082;28;20460;-81
2022/09/30 04:09:06;;;;;;;8.70;5.30;;;7.20;99.90;;;;;;5106204;28;20442;-81
2022/09/30 04:11:32;;;;;;;6.43;5.00;;;7.20;99.90;;;;;;5106036;28;20453;-82
2022/09/30 04:14:00;;;;;;;5.93;4.60;;;7.20;99.90;;;;;;5104875;28;20529;-81
2022/09/30 04:16:28;;;;;;;5.53;4.60;;;7.20;99.90;;;;;;5107459;28;20868;-82
2022/09/30 04:18:56;;;;;;;6.03;5.43;;;7.20;99.90;;;;;;5104768;28;20443;-83
2022/09/30 04:21:23;;;;;;;7.60;5.30;;;7.20;99.90;;;;;;5104909;28;20472;-82
2022/09/30 04:23:50;;;;;;;6.67;5.10;;;7.20;99.90;;;;;;5103730;28;20470;-80
2022/09/30 04:26:19;;;;;;;10.27;4.83;;;7.20;99.90;;;;;;5104291;28;20488;-81
2022/09/30 04:28:46;;;;;;;6.00;4.73;;;7.10;99.90;;;;;;5103564;28;20476;-81
2022/09/30 04:31:16;;;;;;;9.20;5.67;;;7.10;99.90;;;;;;5103601;28;20852;-81
2022/09/30 04:33:44;;;;;;;7.20;5.10;;;7.10;99.90;;;;;;5103480;28;20899;-81
2022/09/30 04:36:11;;;;;;;7.80;4.30;;;7.00;99.90;;;;;;5103602;28;21192;-81
2022/09/30 04:38:38;;;;;;;8.00;5.17;;;7.00;99.90;;;;;;5104340;28;20454;-81
2022/09/30 04:41:06;;;;;;;9.10;4.93;;;7.00;99.90;;;;;;5104426;28;20510;-80
2022/09/30 04:43:34;;;;;;;6.93;5.50;;;7.10;99.90;;;;;;5104325;28;20477;-82
2022/09/30 04:46:01;;;;;;;8.27;5.57;;;7.00;99.90;;;;;;5102549;28;20481;-80
2022/09/30 04:48:30;;;;;;;9.80;6.37;;;7.00;99.90;;;;;;5102881;28;20885;-79
2022/09/30 04:50:58;;;;;;;8.20;5.80;;;7.10;99.90;;;;;;5105908;28;20461;-82
2022/09/30 04:53:25;;;;;;;10.50;6.17;;;7.10;99.90;;;;;;5104968;28;20470;-82
2022/09/30 04:55:58;;;;;;;9.40;6.07;;;6.80;99.90;;;;;;5107210;28;20516;-84
2022/09/30 04:58:25;;;;;;;6.20;4.90;;;7.00;99.90;;;;;;5107243;28;20533;-82
2022/09/30 05:01:00;;;;;;;7.40;5.77;;;7.00;99.90;;;;;;5107644;28;20472;-84
2022/09/30 05:03:27;;;;;;;7.00;5.57;;;7.10;99.90;;;;;;5105998;28;20498;-82
2022/09/30 05:05:54;;;;;;;6.93;5.57;;;7.00;99.90;;;;;;5107203;28;20493;-84
2022/09/30 05:08:21;;;;;;;6.80;4.80;;;7.10;99.90;;;;;;5107537;28;20530;-83
2022/09/30 05:10:56;;;;;;;6.60;4.90;;;7.00;99.90;;;;;;5088268;28;20469;-83
2022/09/30 05:13:23;;;;;;;8.33;6.60;;;7.10;99.90;;;;;;5093036;28;20469;-84
2022/09/30 05:15:50;;;;;;;8.47;6.07;;;7.10;99.90;;;;;;5105876;28;20458;-84
2022/09/30 05:18:19;;;;;;;8.97;7.10;;;7.20;99.90;;;;;;5115352;28;20463;-84
2022/09/30 05:20:48;;;;;;;9.43;5.90;;;7.20;99.90;;;;;;5109909;28;20444;-84
2022/09/30 05:23:15;;;;;;;6.63;5.93;;;7.20;99.90;;;;;;5113810;28;20466;-82
2022/09/30 05:25:42;;;;;;;9.13;6.07;;;7.30;99.90;;;;;;5084911;28;20511;-81
2022/09/30 05:28:09;;;;;;;6.80;6.10;;;7.20;99.90;;;;;;5090875;28;20900;-81
2022/09/30 05:30:36;;;;;;;9.90;8.00;;;7.30;99.90;;;;;;5099631;28;20463;-81
2022/09/30 05:33:03;;;;;;;8.60;6.07;;;7.20;99.90;;;;;;5090132;28;20735;-80
2022/09/30 05:35:31;;;;;;;6.33;5.67;;;7.20;99.90;;;;;;5080552;28;20465;-82
2022/09/30 05:37:59;;;;;;;10.63;6.40;;;7.30;99.90;;;;;;5088611;28;20456;-81
2022/09/30 05:40:26;;;;;;;9.40;6.50;;;7.20;99.90;;;;;;5099078;28;20551;-80
2022/09/30 05:42:53;;;;;;;13.03;7.17;;;7.30;99.90;;;;;;5091708;28;20488;-81
2022/09/30 05:45:20;;;;;;;9.27;7.17;;;7.30;99.90;;;;;;5103944;22;20556;-88
2022/09/30 05:47:51;;;;;;;10.23;7.00;;;7.30;99.90;;;;;;5096182;28;20551;-84
2022/09/30 05:50:19;;;;;;;9.60;7.93;;;7.30;99.90;;;;;;5111845;28;20488;-86
2022/09/30 05:52:48;;;;;;;10.83;8.00;;;7.20;99.90;;;;;;5114647;28;20453;-86
2022/09/30 05:55:15;;;;;;;9.63;7.80;;;7.10;99.90;;;;;;5102980;28;20520;-86
2022/09/30 05:57:42;;;;;;;12.90;7.87;;;7.10;99.90;;;;;;5105060;28;20854;-87
2022/09/30 06:00:10;;;;;;;10.23;7.07;;;7.20;99.90;;;;;;5104949;28;20517;-86
2022/09/30 06:02:37;;;;;;;8.93;6.80;;;7.10;99.90;;;;;;5108736;28;20452;-85
2022/09/30 06:05:05;;;;;;;9.80;7.70;;;7.10;99.90;;;;;;5107130;28;20847;-85
2022/09/30 06:07:33;;;;;;;10.17;6.80;;;7.20;99.90;;;;;;5105912;28;20450;-86
2022/09/30 06:10:04;;;;;;;9.23;6.47;;;7.30;99.90;;;;;;5105478;28;20454;-83
2022/09/30 06:12:30;;;;;;;8.20;7.40;;;7.40;99.90;;;;;;5105675;28;20517;-86
2022/09/30 06:14:57;;;;;;;12.57;7.83;;;7.40;99.90;;;;;;5103996;28;20566;-86
2022/09/30 06:17:24;;;;;;;10.33;7.50;;;7.40;99.90;;;;;;5107331;28;20463;-87
2022/09/30 06:19:51;;;;;;;9.97;7.40;;;7.40;99.90;;;;;;5105924;28;20457;-85
2022/09/30 06:22:20;;;;;;;11.60;7.47;;;7.40;99.90;;;;;;5107809;28;20486;-84
2022/09/30 06:24:47;;;;;;;10.07;8.30;;;7.50;99.90;;;;;;5101895;28;20877;-86
2022/09/30 06:27:18;;;;;;;12.10;8.13;;;7.50;99.90;;;;;;5106193;28;20566;-87
2022/09/30 06:29:44;;;;;;;9.13;7.33;;;7.50;99.90;;;;;;5104456;28;20460;-86
2022/09/30 06:32:12;;;;;;;14.37;8.03;;;7.60;99.90;;;;;;5101531;28;20462;-85
2022/09/30 06:34:39;;;;;;;15.53;10.67;;;7.70;99.90;;;;;;5101618;28;20482;-87
2022/09/30 06:37:06;;;;;;;16.00;9.80;;;7.70;99.90;;;;;;5102725;28;20900;-85
2022/09/30 06:39:33;;;;;;;13.50;9.80;;;7.80;99.90;;;;;;5103982;28;20469;-86
2022/09/30 06:42:00;;;;;;;15.87;9.63;;;7.90;99.90;;;;;;5106280;28;20517;-87
2022/09/30 06:44:28;;;;;;;20.63;9.60;;;7.90;99.90;;;;;;5103665;28;21121;-84
2022/09/30 06:46:55;;;;;;;15.80;9.67;;;7.90;99.90;;;;;;5104412;28;20514;-88
2022/09/30 06:49:22;;;;;;;14.70;9.03;;;8.00;99.90;;;;;;5104100;28;20451;-85
2022/09/30 06:51:50;;;;;;;13.53;9.40;;;8.10;99.90;;;;;;5104859;28;20454;-86
2022/09/30 06:54:19;;;;;;;10.60;8.40;;;8.10;99.90;;;;;;5100417;28;20565;-87
2022/09/30 06:56:57;;;;;;;13.53;8.93;;;8.20;99.90;;;;;;5098158;28;20478;-83
2022/09/30 06:59:24;;;;;;;11.77;9.33;;;8.20;99.90;;;;;;5103214;28;20519;-84
2022/09/30 07:01:52;;;;;;;17.50;12.00;;;8.30;99.90;;;;;;5108954;28;20430;-87
2022/09/30 07:04:19;;;;;;;17.13;11.93;;;8.30;99.90;;;;;;5101402;28;20455;-85
2022/09/30 07:06:49;;;;;;;23.83;14.00;;;8.40;99.90;;;;;;5098139;28;20549;-84
2022/09/30 07:09:16;;;;;;;16.90;12.47;;;8.50;99.90;;;;;;5105132;28;20497;-85
2022/09/30 07:11:43;;;;;;;18.47;12.20;;;8.50;99.90;;;;;;5105360;28;20526;-87
2022/09/30 07:14:12;;;;;;;14.87;12.10;;;8.60;99.90;;;;;;5107556;28;20444;-84
2022/09/30 07:16:39;;;;;;;19.87;13.40;;;8.70;99.90;;;;;;5106294;28;20451;-85
2022/09/30 07:19:09;;;;;;;22.33;13.90;;;8.80;99.90;;;;;;5112802;28;20514;-85
2022/09/30 07:21:35;;;;;;;22.53;14.03;;;8.90;99.90;;;;;;5112502;28;20451;-87
2022/09/30 07:24:02;;;;;;;28.50;15.60;;;8.90;99.90;;;;;;5113183;28;20479;-85
2022/09/30 07:26:29;;;;;;;27.30;16.20;;;9.00;99.90;;;;;;5107094;28;20518;-89
2022/09/30 07:28:56;;;;;;;16.53;12.43;;;9.10;99.90;;;;;;5107011;28;20488;-89
2022/09/30 07:31:28;;;;;;;20.70;12.43;;;9.10;99.90;;;;;;5105533;28;20518;-88
2022/09/30 07:33:55;;;;;;;18.37;12.30;;;9.20;99.90;;;;;;5105203;28;20517;-88
2022/09/30 07:36:28;;;;;;;13.53;12.07;;;9.10;99.90;;;;;;5108357;28;20533;-87
2022/09/30 07:38:56;;;;;;;18.10;11.60;;;9.10;99.90;;;;;;5109936;28;20501;-86
2022/09/30 07:41:27;;;;;;;12.47;10.60;;;9.20;99.90;;;;;;5110525;28;20468;-86
2022/09/30 07:43:57;;;;;;;14.73;11.67;;;9.30;99.90;;;;;;5108861;28;20439;-86
2022/09/30 07:46:28;;;;;;;12.90;11.53;;;9.40;99.90;;;;;;5103429;28;20515;-85
2022/09/30 07:48:59;;;;;;;19.00;12.50;;;9.40;99.90;;;;;;5107968;28;20432;-87
2022/09/30 07:51:31;;;;;;;14.07;11.43;;;9.50;99.90;;;;;;5110113;28;20472;-88
2022/09/30 07:54:00;;;;;;;13.70;10.17;;;9.60;99.90;;;;;;5103821;28;20448;-84
2022/09/30 07:56:28;;;;;;;17.00;11.03;;;9.70;99.90;;;;;;5105586;28;20461;-88
2022/09/30 07:58:59;;;;;;;13.00;10.43;;;9.90;99.90;;;;;;5107425;28;20456;-84
2022/09/30 08:01:26;;;;;;;13.20;10.70;;;9.90;99.90;;;;;;5101606;28;20476;-87
2022/09/30 08:03:55;;;;;;;18.70;11.33;;;10.10;99.90;;;;;;5106146;28;20472;-88
2022/09/30 08:06:24;;;;;;;15.03;11.60;;;10.20;99.90;;;;;;5106765;28;20491;-86
2022/09/30 08:08:59;;;;;;;13.40;10.50;;;10.30;99.90;;;;;;5104345;28;20657;-87
2022/09/30 08:11:26;;;;;;;16.83;11.30;;;10.30;99.90;;;;;;5101917;28;20455;-84
2022/09/30 08:13:54;;;;;;;17.37;10.57;;;10.40;99.90;;;;;;5100868;28;20451;-87
2022/09/30 08:16:21;;;;;;;13.83;11.17;;;10.50;99.90;;;;;;5102811;28;20530;-86
2022/09/30 08:18:48;;;;;;;14.10;9.20;;;10.50;99.90;;;;;;5099806;28;20532;-87
2022/09/30 08:21:18;;;;;;;14.90;10.70;;;10.70;99.90;;;;;;5102259;28;20532;-82
2022/09/30 08:23:45;;;;;;;14.67;10.20;;;10.70;99.90;;;;;;5101578;28;20452;-84
2022/09/30 08:26:14;;;;;;;14.90;10.37;;;10.70;99.90;;;;;;5107117;28;20493;-86
2022/09/30 08:28:41;;;;;;;12.70;10.07;;;10.90;99.90;;;;;;5100727;28;20456;-84
2022/09/30 08:31:10;;;;;;;15.67;9.80;;;10.80;99.90;;;;;;5105524;28;20485;-85
2022/09/30 08:33:37;;;;;;;12.00;8.90;;;10.90;99.90;;;;;;5103841;28;20455;-87
2022/09/30 08:36:05;;;;;;;13.07;10.20;;;11.00;99.90;;;;;;5109489;28;20525;-87
2022/09/30 08:38:32;;;;;;;13.63;11.13;;;11.10;99.90;;;;;;5107518;28;20471;-88
2022/09/30 08:41:15;;;;;;;15.33;9.97;;;11.20;99.90;;;;;;5100921;28;20454;-88
2022/09/30 08:43:55;;;;;;;11.67;9.70;;;11.20;99.90;;;;;;5102244;28;20506;-88
2022/09/30 08:46:36;;;;;;;13.03;10.30;;;11.40;99.90;;;;;;5109255;28;20493;-85
2022/09/30 08:49:14;;;;;;;14.33;10.40;;;11.40;99.90;;;;;;5116638;28;20467;-87
2022/09/30 08:51:45;;;;;;;11.70;9.07;;;11.40;99.90;;;;;;5102794;28;20441;-87
2022/09/30 08:54:15;;;;;;;10.37;8.40;;;11.60;99.90;;;;;;5102708;28;20500;-85
2022/09/30 08:56:44;;;;;;;11.97;8.87;;;11.80;99.90;;;;;;5109168;28;20471;-87
2022/09/30 08:59:26;;;;;;;12.77;9.00;;;11.90;99.90;;;;;;5102499;28;20513;-88
2022/09/30 09:01:58;;;;;;;12.70;8.47;;;12.10;99.90;;;;;;5106206;28;20446;-86
2022/09/30 09:04:25;;;;;;;14.70;8.87;;;12.40;99.90;;;;;;5107618;28;20444;-87
2022/09/30 09:06:58;;;;;;;10.40;7.90;;;12.60;99.90;;;;;;5108410;28;20492;-85
2022/09/30 09:09:43;;;;;;;14.40;8.40;;;12.60;99.90;;;;;;5111903;28;20455;-87
2022/09/30 09:12:22;;;;;;;8.87;7.20;;;12.80;99.90;;;;;;5110680;28;20455;-87
2022/09/30 09:15:02;;;;;;;8.73;6.47;;;13.00;99.90;;;;;;5105050;28;20500;-86
2022/09/30 09:17:38;;;;;;;9.30;6.70;;;13.10;99.90;;;;;;5105865;28;20471;-86
2022/09/30 09:20:14;;;;;;;12.50;8.30;;;13.20;99.90;;;;;;5100046;28;20509;-85
2022/09/30 09:22:43;;;;;;;11.20;7.60;;;13.10;99.90;;;;;;5108854;28;20506;-88
2022/09/30 09:25:14;;;;;;;8.97;7.10;;;13.10;99.90;;;;;;5111182;28;21064;-86
2022/09/30 09:27:49;;;;;;;10.87;7.40;;;13.30;99.90;;;;;;5111936;28;20508;-87
2022/09/30 09:30:20;;;;;;;9.80;7.03;;;13.40;99.90;;;;;;5110425;28;20533;-86
2022/09/30 09:32:51;;;;;;;9.77;7.50;;;13.50;99.90;;;;;;5111187;28;20455;-86
2022/09/30 09:35:29;;;;;;;10.60;6.67;;;13.60;99.90;;;;;;5110971;28;20477;-86
2022/09/30 09:40:57;;;;;;;12.90;6.93;;;13.90;99.90;;;;;;5111113;28;20441;-86
2022/09/30 09:43:50;;;;;;;7.40;6.37;;;14.10;99.90;;;;;;5107920;27;21100;-87
2022/09/30 09:46:22;;;;;;;12.83;6.87;;;14.50;99.90;;;;;;5108053;28;20525;-88
2022/09/30 09:48:49;;;;;;;9.50;6.57;;;14.50;99.90;;;;;;5095235;28;20466;-85
2022/09/30 09:51:23;;;;;;;11.90;6.70;;;15.00;99.90;;;;;;5087655;28;21002;-86
2022/09/30 09:53:52;;;;;;;7.80;5.60;;;15.30;99.90;;;;;;5088337;28;20431;-84
2022/09/30 09:56:21;;;;;;;7.93;4.40;;;15.60;99.90;;;;;;5086528;28;20464;-86
2022/09/30 09:59:09;;;;;;;10.47;5.40;;;16.00;99.90;;;;;;5086830;28;20451;-86
2022/09/30 10:01:38;;;;;;;7.30;4.37;;;16.20;99.90;;;;;;5087984;28;20512;-85
2022/09/30 10:04:16;;;;;;;10.47;5.50;;;16.20;99.90;;;;;;5085831;28;20889;-85
2022/09/30 10:06:47;;;;;;;10.70;5.13;;;16.50;99.90;;;;;;5093601;28;20535;-84
2022/09/30 10:09:26;;;;;;;7.97;5.33;;;16.90;99.90;;;;;;5087561;28;20514;-84
2022/09/30 10:12:36;;;;;;;9.40;6.57;;;17.30;99.90;;;;;;5089946;28;20927;-86
2022/09/30 10:15:19;;;;;;;9.60;5.30;;;17.50;99.90;;;;;;5091807;28;20496;-86
2022/09/30 10:17:55;;;;;;;6.97;5.67;;;17.80;99.90;;;;;;5084139;28;20455;-87
2022/09/30 10:20:28;;;;;;;9.90;6.10;;;17.70;99.90;;;;;;5088242;28;20486;-84
2022/09/30 10:23:04;;;;;;;10.97;6.33;;;17.80;99.90;;;;;;5087970;28;20484;-84
2022/09/30 10:25:31;;;;;;;7.63;5.17;;;18.00;99.90;;;;;;5097749;28;20524;-85
2022/09/30 10:28:00;;;;;;;8.97;5.87;;;18.30;99.90;;;;;;5103633;28;20494;-85
2022/09/30 10:30:41;;;;;;;9.50;5.10;;;18.40;99.90;;;;;;5076067;28;20471;-85
2022/09/30 10:33:28;;;;;;;6.50;5.10;;;18.60;99.90;;;;;;5088002;28;20456;-84
2022/09/30 10:36:02;;;;;;;9.60;5.33;;;18.40;99.90;;;;;;5088245;28;20476;-85
2022/09/30 10:38:30;;;;;;;11.10;5.10;;;18.40;99.90;;;;;;5070266;28;20513;-84
2022/09/30 10:40:58;;;;;;;6.07;4.60;;;18.50;99.90;;;;;;5096801;28;20485;-85
2022/09/30 10:43:28;;;;;;;8.30;4.70;;;18.70;99.90;;;;;;5086893;28;20538;-84
2022/09/30 10:46:02;;;;;;;6.60;4.33;;;18.70;99.90;;;;;;5088331;28;20482;-85
2022/09/30 10:48:31;;;;;;;10.80;4.57;;;18.50;99.90;;;;;;5070281;28;20833;-85
2022/09/30 10:50:58;;;;;;;9.27;4.33;;;18.10;99.90;;;;;;5086401;28;20514;-85
2022/09/30 10:53:28;;;;;;;7.70;5.53;;;17.40;99.90;;;;;;5081627;28;20477;-86
2022/09/30 10:55:56;;;;;;;11.23;5.90;;;16.90;99.90;;;;;;5089214;28;20538;-85
2022/09/30 10:58:30;;;;;;;13.20;7.70;;;16.80;99.90;;;;;;5073052;28;20654;-85
2022/09/30 11:01:04;;;;;;;7.60;4.80;;;16.80;99.90;;;;;;5075600;28;20479;-84
2022/09/30 11:03:38;;;;;;;8.13;5.60;;;16.90;99.90;;;;;;5072956;28;20499;-85
2022/09/30 11:06:07;;;;;;;6.57;4.37;;;17.10;99.90;;;;;;5083912;28;20464;-87
2022/09/30 11:08:39;;;;;;;6.53;4.00;;;17.50;99.90;;;;;;5084132;28;20580;-85
2022/09/30 11:11:12;;;;;;;5.70;4.13;;;17.90;99.90;;;;;;5071154;28;20593;-89
2022/09/30 11:13:44;;;;;;;8.33;5.10;;;18.20;99.90;;;;;;5073239;28;20461;-85
2022/09/30 11:16:21;;;;;;;9.00;5.40;;;18.20;99.90;;;;;;5073131;28;20539;-87
2022/09/30 11:18:51;;;;;;;7.47;3.90;;;18.40;99.90;;;;;;5081535;28;20507;-85
2022/09/30 11:21:22;;;;;;;6.17;3.90;;;18.20;99.90;;;;;;5073209;28;20447;-86
2022/09/30 11:23:52;;;;;;;5.77;4.83;;;17.80;99.90;;;;;;5073416;28;20510;-86
2022/09/30 11:26:33;;;;;;;8.13;3.60;;;18.00;99.90;;;;;;5073507;28;20474;-85
2022/09/30 11:29:18;;;;;;;7.20;4.50;;;18.20;99.90;;;;;;5080593;28;20484;-85
2022/09/30 11:32:02;;;;;;;4.80;3.37;;;17.90;99.90;;;;;;5070938;28;20981;-87
2022/09/30 11:34:42;;;;;;;6.57;4.20;;;17.80;99.90;;;;;;5081122;28;20455;-87
2022/09/30 11:37:15;;;;;;;10.17;4.20;;;18.30;99.90;;;;;;5073382;28;20454;-86
2022/09/30 11:39:58;;;;;;;5.90;3.77;;;19.00;99.90;;;;;;5071379;28;20447;-85
2022/09/30 11:42:32;;;;;;;6.53;3.70;;;19.00;99.90;;;;;;5073521;28;20557;-86
2022/09/30 11:45:08;;;;;;;6.57;4.10;;;19.00;99.90;;;;;;5077978;28;20491;-86
2022/09/30 11:47:58;;;;;;;7.83;3.90;;;19.40;99.90;;;;;;5061655;28;20476;-83
2022/09/30 11:50:50;;;;;;;6.40;3.90;;;19.80;99.90;;;;;;5093181;28;20442;-85
2022/09/30 11:53:28;;;;;;;5.17;3.80;;;20.10;99.90;;;;;;5079139;28;20471;-84
2022/09/30 11:56:09;;;;;;;8.00;3.90;;;20.40;99.90;;;;;;5073143;28;20527;-84
2022/09/30 11:58:41;;;;;;;6.73;3.23;;;20.50;99.90;;;;;;5088162;28;20495;-87
2022/09/30 12:01:17;;;;;;;3.80;2.73;;;20.90;99.90;;;;;;5077713;28;20994;-86
2022/09/30 12:03:53;;;;;;;3.97;2.90;;;21.00;99.90;;;;;;5076508;28;20494;-85
2022/09/30 12:06:26;;;;;;;5.07;3.40;;;21.40;99.90;;;;;;5071714;28;20489;-85
2022/09/30 12:08:58;;;;;;;5.50;3.13;;;21.60;99.90;;;;;;5078370;28;20479;-83
2022/09/30 12:11:33;;;;;;;4.20;2.40;;;21.70;99.90;;;;;;5071699;28;20475;-86
2022/09/30 12:14:07;;;;;;;5.37;2.53;;;21.70;99.90;;;;;;5089176;28;20510;-84
2022/09/30 12:16:34;;;;;;;6.30;2.50;;;22.10;99.90;;;;;;5091506;28;20519;-82
2022/09/30 12:19:13;;;;;;;6.87;2.80;;;22.10;99.90;;;;;;5070998;28;20482;-87
2022/09/30 12:21:46;;;;;;;5.60;3.00;;;22.20;99.90;;;;;;5069254;28;20526;-84
2022/09/30 12:24:23;;;;;;;5.43;2.37;;;22.10;99.90;;;;;;5070175;28;20484;-85
2022/09/30 12:26:51;;;;;;;4.73;3.00;;;22.20;99.90;;;;;;5079483;28;20482;-84
2022/09/30 12:32:39;;;;;;;4.10;2.53;;;22.40;99.90;;;;;;5073128;28;20531;-87
2022/09/30 12:35:30;;;;;;;3.40;1.83;;;22.80;99.90;;;;;;5062518;28;20556;-87
2022/09/30 12:38:15;;;;;;;4.03;2.50;;;22.70;99.90;;;;;;5068699;28;20470;-84
2022/09/30 12:40:59;;;;;;;3.40;2.53;;;22.60;99.90;;;;;;5069968;28;20547;-87
2022/09/30 12:44:06;;;;;;;5.37;2.63;;;22.90;99.90;;;;;;5064818;28;20502;-85
2022/09/30 12:47:01;;;;;;;5.90;2.60;;;23.20;99.90;;;;;;5044381;28;21022;-86
2022/09/30 12:49:31;;;;;;;5.77;2.70;;;23.30;99.90;;;;;;5062368;28;20532;-86
2022/09/30 12:52:05;;;;;;;5.30;2.50;;;23.30;99.90;;;;;;5070112;28;20515;-88
2022/09/30 12:54:36;;;;;;;4.20;2.00;;;23.30;99.90;;;;;;5068461;28;20476;-84
2022/09/30 12:57:08;;;;;;;3.73;2.50;;;23.40;99.90;;;;;;5067604;28;20475;-86
2022/09/30 12:59:38;;;;;;;4.10;2.37;;;23.30;99.90;;;;;;5066487;28;20864;-86
2022/09/30 13:02:06;;;;;;;6.10;2.37;;;23.40;99.90;;;;;;5068656;28;20451;-85
2022/09/30 13:04:35;;;;;;;5.23;2.90;;;23.60;99.90;;;;;;5065070;28;20467;-85
2022/09/30 13:07:33;;;;;;;4.80;2.83;;;23.30;99.90;;;;;;5071626;28;20455;-87
2022/09/30 13:10:26;;;;;;;5.50;2.60;;;23.40;99.90;;;;;;5065383;28;20493;-87
2022/09/30 13:13:23;;;;;;;3.90;2.40;;;23.50;99.90;;;;;;5066217;28;20440;-85
2022/09/30 13:15:51;;;;;;;5.00;3.40;;;23.40;99.90;;;;;;5067644;28;20476;-85
2022/09/30 13:18:55;;;;;;;4.40;2.70;;;23.00;99.90;;;;;;5068167;28;20833;-86
2022/09/30 13:21:25;;;;;;;4.40;2.70;;;23.20;99.90;;;;;;5067048;28;20454;-87